sensor_id;sensor_type;location;lat;lon;timestamp;P1;durP1;ratioP1;P2;durP2;ratioP2
33714;SDS011;20043;50.998;4.754;2023-07-13T00:01:42;7.07;;;2.05;;
33714;SDS011;20043;50.998;4.754;2023-07-13T00:04:07;10.38;;;2.38;;
33714;SDS011;20043;50.998;4.754;2023-07-13T00:06:33;9.95;;;2.55;;
33714;SDS011;20043;50.998;4.754;2023-07-13T00:09:00;10.77;;;2.20;;
33714;SDS011;20043;50.998;4.754;2023-07-13T00:11:26;8.25;;;2.45;;
33714;SDS011;20043;50.998;4.754;2023-07-13T00:13:52;8.02;;;1.77;;
33714;SDS011;20043;50.998;4.754;2023-07-13T00:16:18;9.13;;;2.40;;
33714;SDS011;20043;50.998;4.754;2023-07-13T00:18:44;6.75;;;1.95;;
33714;SDS011;20043;50.998;4.754;2023-07-13T00:21:10;9.10;;;2.30;;
33714;SDS011;20043;50.998;4.754;2023-07-13T00:23:38;8.05;;;2.15;;
33714;SDS011;20043;50.998;4.754;2023-07-13T00:26:05;10.45;;;2.10;;
33714;SDS011;20043;50.998;4.754;2023-07-13T00:28:33;10.77;;;2.63;;
33714;SDS011;20043;50.998;4.754;2023-07-13T00:31:00;9.85;;;2.33;;
33714;SDS011;20043;50.998;4.754;2023-07-13T00:33:29;9.98;;;2.22;;
33714;SDS011;20043;50.998;4.754;2023-07-13T00:35:55;17.27;;;3.00;;
33714;SDS011;20043;50.998;4.754;2023-07-13T00:38:21;12.70;;;2.42;;
33714;SDS011;20043;50.998;4.754;2023-07-13T00:40:47;12.13;;;2.13;;
33714;SDS011;20043;50.998;4.754;2023-07-13T00:43:14;13.23;;;2.55;;
33714;SDS011;20043;50.998;4.754;2023-07-13T00:48:11;11.43;;;2.28;;
33714;SDS011;20043;50.998;4.754;2023-07-13T00:50:40;15.77;;;2.55;;
33714;SDS011;20043;50.998;4.754;2023-07-13T00:53:07;13.43;;;2.63;;
33714;SDS011;20043;50.998;4.754;2023-07-13T00:55:33;8.57;;;2.30;;
33714;SDS011;20043;50.998;4.754;2023-07-13T00:57:59;8.60;;;2.20;;
33714;SDS011;20043;50.998;4.754;2023-07-13T01:00:27;9.00;;;2.10;;
33714;SDS011;20043;50.998;4.754;2023-07-13T01:02:55;11.23;;;2.58;;
33714;SDS011;20043;50.998;4.754;2023-07-13T01:05:21;10.98;;;2.20;;
33714;SDS011;20043;50.998;4.754;2023-07-13T01:07:48;11.70;;;2.33;;
33714;SDS011;20043;50.998;4.754;2023-07-13T01:10:16;8.57;;;1.92;;
33714;SDS011;20043;50.998;4.754;2023-07-13T01:12:45;11.98;;;2.55;;
33714;SDS011;20043;50.998;4.754;2023-07-13T01:17:58;12.20;;;2.63;;
33714;SDS011;20043;50.998;4.754;2023-07-13T01:20:24;8.90;;;2.25;;
33714;SDS011;20043;50.998;4.754;2023-07-13T01:22:50;12.90;;;2.80;;
33714;SDS011;20043;50.998;4.754;2023-07-13T01:25:16;10.30;;;2.40;;
33714;SDS011;20043;50.998;4.754;2023-07-13T01:27:41;9.38;;;2.50;;
33714;SDS011;20043;50.998;4.754;2023-07-13T01:30:07;20.88;;;2.40;;
33714;SDS011;20043;50.998;4.754;2023-07-13T01:32:33;8.40;;;2.28;;
33714;SDS011;20043;50.998;4.754;2023-07-13T01:34:59;13.00;;;2.90;;
33714;SDS011;20043;50.998;4.754;2023-07-13T01:37:25;15.90;;;2.45;;
33714;SDS011;20043;50.998;4.754;2023-07-13T01:39:51;10.13;;;2.10;;
33714;SDS011;20043;50.998;4.754;2023-07-13T01:42:17;13.20;;;2.60;;
33714;SDS011;20043;50.998;4.754;2023-07-13T01:44:42;14.70;;;2.53;;
33714;SDS011;20043;50.998;4.754;2023-07-13T01:47:08;10.20;;;2.85;;
33714;SDS011;20043;50.998;4.754;2023-07-13T01:49:34;8.48;;;2.22;;
33714;SDS011;20043;50.998;4.754;2023-07-13T01:52:00;12.65;;;2.75;;
33714;SDS011;20043;50.998;4.754;2023-07-13T01:54:25;14.80;;;3.03;;
33714;SDS011;20043;50.998;4.754;2023-07-13T01:56:51;14.18;;;2.25;;
33714;SDS011;20043;50.998;4.754;2023-07-13T01:59:17;11.65;;;2.60;;
33714;SDS011;20043;50.998;4.754;2023-07-13T02:01:42;12.57;;;2.67;;
33714;SDS011;20043;50.998;4.754;2023-07-13T02:04:14;10.15;;;2.22;;
33714;SDS011;20043;50.998;4.754;2023-07-13T02:06:40;14.77;;;2.83;;
33714;SDS011;20043;50.998;4.754;2023-07-13T02:09:05;10.63;;;2.65;;
33714;SDS011;20043;50.998;4.754;2023-07-13T02:11:32;8.65;;;2.30;;
33714;SDS011;20043;50.998;4.754;2023-07-13T02:14:01;14.57;;;3.15;;
33714;SDS011;20043;50.998;4.754;2023-07-13T02:16:28;11.10;;;2.80;;
33714;SDS011;20043;50.998;4.754;2023-07-13T02:18:56;12.77;;;2.47;;
33714;SDS011;20043;50.998;4.754;2023-07-13T02:21:22;12.00;;;2.75;;
33714;SDS011;20043;50.998;4.754;2023-07-13T02:23:49;11.32;;;2.38;;
33714;SDS011;20043;50.998;4.754;2023-07-13T02:26:14;16.13;;;2.60;;
33714;SDS011;20043;50.998;4.754;2023-07-13T02:28:40;14.45;;;3.08;;
33714;SDS011;20043;50.998;4.754;2023-07-13T02:31:11;13.88;;;3.00;;
33714;SDS011;20043;50.998;4.754;2023-07-13T02:33:38;7.13;;;1.90;;
33714;SDS011;20043;50.998;4.754;2023-07-13T02:36:04;19.05;;;3.13;;
33714;SDS011;20043;50.998;4.754;2023-07-13T02:38:31;6.68;;;2.20;;
33714;SDS011;20043;50.998;4.754;2023-07-13T02:40:58;11.65;;;2.58;;
33714;SDS011;20043;50.998;4.754;2023-07-13T02:43:25;11.63;;;2.65;;
33714;SDS011;20043;50.998;4.754;2023-07-13T02:45:50;10.57;;;2.58;;
33714;SDS011;20043;50.998;4.754;2023-07-13T02:48:16;14.50;;;2.80;;
33714;SDS011;20043;50.998;4.754;2023-07-13T02:50:42;13.50;;;2.90;;
33714;SDS011;20043;50.998;4.754;2023-07-13T02:53:08;12.45;;;2.80;;
33714;SDS011;20043;50.998;4.754;2023-07-13T02:55:34;13.77;;;2.63;;
33714;SDS011;20043;50.998;4.754;2023-07-13T02:58:00;14.25;;;3.08;;
33714;SDS011;20043;50.998;4.754;2023-07-13T03:00:26;14.63;;;2.95;;
33714;SDS011;20043;50.998;4.754;2023-07-13T03:02:52;10.93;;;2.55;;
33714;SDS011;20043;50.998;4.754;2023-07-13T03:05:24;15.85;;;3.05;;
33714;SDS011;20043;50.998;4.754;2023-07-13T03:07:54;14.63;;;3.15;;
33714;SDS011;20043;50.998;4.754;2023-07-13T03:10:19;16.70;;;2.78;;
33714;SDS011;20043;50.998;4.754;2023-07-13T03:12:45;13.02;;;2.53;;
33714;SDS011;20043;50.998;4.754;2023-07-13T03:15:10;15.23;;;3.30;;
33714;SDS011;20043;50.998;4.754;2023-07-13T03:17:36;16.88;;;2.90;;
33714;SDS011;20043;50.998;4.754;2023-07-13T03:20:01;15.00;;;2.70;;
33714;SDS011;20043;50.998;4.754;2023-07-13T03:22:28;18.65;;;3.00;;
33714;SDS011;20043;50.998;4.754;2023-07-13T03:24:54;15.80;;;2.85;;
33714;SDS011;20043;50.998;4.754;2023-07-13T03:27:20;13.23;;;3.08;;
33714;SDS011;20043;50.998;4.754;2023-07-13T03:29:46;14.05;;;2.80;;
33714;SDS011;20043;50.998;4.754;2023-07-13T03:32:11;19.70;;;3.15;;
33714;SDS011;20043;50.998;4.754;2023-07-13T03:34:37;10.25;;;2.53;;
33714;SDS011;20043;50.998;4.754;2023-07-13T03:37:10;13.15;;;2.78;;
33714;SDS011;20043;50.998;4.754;2023-07-13T03:39:49;15.25;;;3.13;;
33714;SDS011;20043;50.998;4.754;2023-07-13T03:42:17;12.77;;;2.75;;
33714;SDS011;20043;50.998;4.754;2023-07-13T03:44:42;14.65;;;2.83;;
33714;SDS011;20043;50.998;4.754;2023-07-13T03:47:15;16.55;;;3.35;;
33714;SDS011;20043;50.998;4.754;2023-07-13T03:49:41;13.18;;;3.60;;
33714;SDS011;20043;50.998;4.754;2023-07-13T03:52:06;13.50;;;3.15;;
33714;SDS011;20043;50.998;4.754;2023-07-13T03:54:32;15.55;;;3.13;;
33714;SDS011;20043;50.998;4.754;2023-07-13T03:56:58;16.48;;;3.17;;
33714;SDS011;20043;50.998;4.754;2023-07-13T03:59:23;15.00;;;3.10;;
33714;SDS011;20043;50.998;4.754;2023-07-13T04:01:49;17.85;;;3.03;;
33714;SDS011;20043;50.998;4.754;2023-07-13T04:04:14;13.50;;;2.95;;
33714;SDS011;20043;50.998;4.754;2023-07-13T04:06:40;13.63;;;3.35;;
33714;SDS011;20043;50.998;4.754;2023-07-13T04:09:06;12.98;;;3.17;;
33714;SDS011;20043;50.998;4.754;2023-07-13T04:11:32;18.90;;;3.20;;
33714;SDS011;20043;50.998;4.754;2023-07-13T04:13:58;13.43;;;2.90;;
33714;SDS011;20043;50.998;4.754;2023-07-13T04:16:24;18.13;;;3.45;;
33714;SDS011;20043;50.998;4.754;2023-07-13T04:18:50;20.13;;;3.33;;
33714;SDS011;20043;50.998;4.754;2023-07-13T04:21:19;14.50;;;3.45;;
33714;SDS011;20043;50.998;4.754;2023-07-13T04:23:46;13.77;;;3.35;;
33714;SDS011;20043;50.998;4.754;2023-07-13T04:26:11;13.23;;;3.00;;
33714;SDS011;20043;50.998;4.754;2023-07-13T04:28:37;16.38;;;3.30;;
33714;SDS011;20043;50.998;4.754;2023-07-13T04:31:03;16.10;;;3.42;;
33714;SDS011;20043;50.998;4.754;2023-07-13T04:33:29;14.05;;;3.63;;
33714;SDS011;20043;50.998;4.754;2023-07-13T04:35:54;14.27;;;3.40;;
33714;SDS011;20043;50.998;4.754;2023-07-13T04:38:24;17.88;;;3.70;;
33714;SDS011;20043;50.998;4.754;2023-07-13T04:40:55;22.73;;;3.83;;
33714;SDS011;20043;50.998;4.754;2023-07-13T04:43:22;15.60;;;3.65;;
33714;SDS011;20043;50.998;4.754;2023-07-13T04:45:48;15.35;;;3.40;;
33714;SDS011;20043;50.998;4.754;2023-07-13T04:48:15;14.60;;;3.35;;
33714;SDS011;20043;50.998;4.754;2023-07-13T04:50:41;12.95;;;2.90;;
33714;SDS011;20043;50.998;4.754;2023-07-13T04:53:08;16.55;;;3.53;;
33714;SDS011;20043;50.998;4.754;2023-07-13T04:55:35;13.57;;;2.80;;
33714;SDS011;20043;50.998;4.754;2023-07-13T04:58:01;15.88;;;3.22;;
33714;SDS011;20043;50.998;4.754;2023-07-13T05:00:27;13.25;;;3.33;;
33714;SDS011;20043;50.998;4.754;2023-07-13T05:02:55;12.13;;;3.53;;
33714;SDS011;20043;50.998;4.754;2023-07-13T05:05:22;23.85;;;3.10;;
33714;SDS011;20043;50.998;4.754;2023-07-13T05:07:48;14.25;;;3.95;;
33714;SDS011;20043;50.998;4.754;2023-07-13T05:10:14;16.75;;;3.60;;
33714;SDS011;20043;50.998;4.754;2023-07-13T05:12:39;25.40;;;4.03;;
33714;SDS011;20043;50.998;4.754;2023-07-13T05:15:05;15.60;;;3.40;;
33714;SDS011;20043;50.998;4.754;2023-07-13T05:17:31;20.60;;;3.53;;
33714;SDS011;20043;50.998;4.754;2023-07-13T05:19:57;15.00;;;3.33;;
33714;SDS011;20043;50.998;4.754;2023-07-13T05:22:23;17.13;;;3.42;;
33714;SDS011;20043;50.998;4.754;2023-07-13T05:24:48;15.43;;;3.58;;
33714;SDS011;20043;50.998;4.754;2023-07-13T05:27:14;16.75;;;3.22;;
33714;SDS011;20043;50.998;4.754;2023-07-13T05:29:40;19.63;;;3.60;;
33714;SDS011;20043;50.998;4.754;2023-07-13T05:32:05;18.80;;;3.75;;
33714;SDS011;20043;50.998;4.754;2023-07-13T05:34:31;19.00;;;3.92;;
33714;SDS011;20043;50.998;4.754;2023-07-13T05:36:57;22.80;;;4.07;;
33714;SDS011;20043;50.998;4.754;2023-07-13T05:39:23;19.92;;;3.50;;
33714;SDS011;20043;50.998;4.754;2023-07-13T05:41:49;17.95;;;3.95;;
33714;SDS011;20043;50.998;4.754;2023-07-13T05:44:15;19.92;;;3.95;;
33714;SDS011;20043;50.998;4.754;2023-07-13T05:46:40;18.25;;;3.72;;
33714;SDS011;20043;50.998;4.754;2023-07-13T05:49:06;25.63;;;4.45;;
33714;SDS011;20043;50.998;4.754;2023-07-13T05:51:32;21.88;;;3.83;;
33714;SDS011;20043;50.998;4.754;2023-07-13T05:53:57;18.83;;;3.72;;
33714;SDS011;20043;50.998;4.754;2023-07-13T05:56:23;22.13;;;3.95;;
33714;SDS011;20043;50.998;4.754;2023-07-13T05:58:50;18.85;;;3.97;;
33714;SDS011;20043;50.998;4.754;2023-07-13T06:01:15;18.05;;;4.28;;
33714;SDS011;20043;50.998;4.754;2023-07-13T06:03:42;16.83;;;4.20;;
33714;SDS011;20043;50.998;4.754;2023-07-13T06:06:08;20.08;;;4.07;;
33714;SDS011;20043;50.998;4.754;2023-07-13T06:08:35;17.38;;;4.65;;
33714;SDS011;20043;50.998;4.754;2023-07-13T06:11:01;23.77;;;4.30;;
33714;SDS011;20043;50.998;4.754;2023-07-13T06:13:29;18.60;;;3.70;;
33714;SDS011;20043;50.998;4.754;2023-07-13T06:15:54;18.90;;;3.65;;
33714;SDS011;20043;50.998;4.754;2023-07-13T06:18:20;22.17;;;4.30;;
33714;SDS011;20043;50.998;4.754;2023-07-13T06:20:45;23.85;;;4.32;;
33714;SDS011;20043;50.998;4.754;2023-07-13T06:23:11;23.05;;;4.43;;
33714;SDS011;20043;50.998;4.754;2023-07-13T06:25:37;23.20;;;4.43;;
33714;SDS011;20043;50.998;4.754;2023-07-13T06:28:02;22.60;;;4.15;;
33714;SDS011;20043;50.998;4.754;2023-07-13T06:30:28;21.17;;;4.32;;
33714;SDS011;20043;50.998;4.754;2023-07-13T06:32:53;19.88;;;4.25;;
33714;SDS011;20043;50.998;4.754;2023-07-13T06:35:19;19.55;;;4.10;;
33714;SDS011;20043;50.998;4.754;2023-07-13T06:37:45;17.52;;;4.20;;
33714;SDS011;20043;50.998;4.754;2023-07-13T06:40:12;18.60;;;4.70;;
33714;SDS011;20043;50.998;4.754;2023-07-13T06:42:38;23.45;;;4.38;;
33714;SDS011;20043;50.998;4.754;2023-07-13T06:45:03;20.55;;;4.55;;
33714;SDS011;20043;50.998;4.754;2023-07-13T06:47:29;18.92;;;3.92;;
33714;SDS011;20043;50.998;4.754;2023-07-13T06:49:55;21.58;;;4.32;;
33714;SDS011;20043;50.998;4.754;2023-07-13T06:52:21;17.95;;;4.53;;
33714;SDS011;20043;50.998;4.754;2023-07-13T06:54:46;17.25;;;3.72;;
33714;SDS011;20043;50.998;4.754;2023-07-13T06:57:12;18.98;;;4.03;;
33714;SDS011;20043;50.998;4.754;2023-07-13T06:59:37;18.77;;;4.13;;
33714;SDS011;20043;50.998;4.754;2023-07-13T07:02:03;17.83;;;3.97;;
33714;SDS011;20043;50.998;4.754;2023-07-13T07:04:29;23.42;;;4.18;;
33714;SDS011;20043;50.998;4.754;2023-07-13T07:06:55;18.67;;;4.28;;
33714;SDS011;20043;50.998;4.754;2023-07-13T07:09:21;19.05;;;4.15;;
33714;SDS011;20043;50.998;4.754;2023-07-13T07:11:46;15.23;;;3.55;;
33714;SDS011;20043;50.998;4.754;2023-07-13T07:14:12;21.00;;;4.65;;
33714;SDS011;20043;50.998;4.754;2023-07-13T07:16:37;22.90;;;4.63;;
33714;SDS011;20043;50.998;4.754;2023-07-13T07:19:03;26.88;;;4.07;;
33714;SDS011;20043;50.998;4.754;2023-07-13T07:21:28;16.75;;;4.15;;
33714;SDS011;20043;50.998;4.754;2023-07-13T07:23:54;20.10;;;3.80;;
33714;SDS011;20043;50.998;4.754;2023-07-13T07:26:20;16.88;;;4.05;;
33714;SDS011;20043;50.998;4.754;2023-07-13T07:28:45;19.38;;;3.85;;
33714;SDS011;20043;50.998;4.754;2023-07-13T07:31:11;19.60;;;4.32;;
33714;SDS011;20043;50.998;4.754;2023-07-13T07:33:36;18.60;;;4.00;;
33714;SDS011;20043;50.998;4.754;2023-07-13T07:36:02;20.08;;;4.15;;
33714;SDS011;20043;50.998;4.754;2023-07-13T07:38:28;21.75;;;4.47;;
33714;SDS011;20043;50.998;4.754;2023-07-13T07:40:54;19.75;;;4.25;;
33714;SDS011;20043;50.998;4.754;2023-07-13T07:43:19;14.65;;;3.75;;
33714;SDS011;20043;50.998;4.754;2023-07-13T07:45:45;17.17;;;4.20;;
33714;SDS011;20043;50.998;4.754;2023-07-13T07:48:11;16.05;;;3.90;;
33714;SDS011;20043;50.998;4.754;2023-07-13T07:50:37;16.75;;;3.97;;
33714;SDS011;20043;50.998;4.754;2023-07-13T07:53:03;21.33;;;3.90;;
33714;SDS011;20043;50.998;4.754;2023-07-13T07:55:32;20.90;;;4.43;;
33714;SDS011;20043;50.998;4.754;2023-07-13T07:57:59;17.17;;;4.40;;
33714;SDS011;20043;50.998;4.754;2023-07-13T08:00:25;15.63;;;3.55;;
33714;SDS011;20043;50.998;4.754;2023-07-13T08:02:52;19.55;;;4.07;;
33714;SDS011;20043;50.998;4.754;2023-07-13T08:05:17;17.92;;;3.88;;
33714;SDS011;20043;50.998;4.754;2023-07-13T08:07:43;19.13;;;3.70;;
33714;SDS011;20043;50.998;4.754;2023-07-13T08:10:09;15.82;;;3.55;;
33714;SDS011;20043;50.998;4.754;2023-07-13T08:12:35;14.27;;;3.60;;
33714;SDS011;20043;50.998;4.754;2023-07-13T08:15:05;16.30;;;3.75;;
33714;SDS011;20043;50.998;4.754;2023-07-13T08:17:33;14.80;;;3.65;;
33714;SDS011;20043;50.998;4.754;2023-07-13T08:19:59;16.15;;;3.60;;
33714;SDS011;20043;50.998;4.754;2023-07-13T08:22:25;16.02;;;3.60;;
33714;SDS011;20043;50.998;4.754;2023-07-13T08:24:50;14.80;;;3.47;;
33714;SDS011;20043;50.998;4.754;2023-07-13T08:27:21;16.77;;;3.42;;
33714;SDS011;20043;50.998;4.754;2023-07-13T08:29:47;24.58;;;3.95;;
33714;SDS011;20043;50.998;4.754;2023-07-13T08:32:13;15.85;;;3.45;;
33714;SDS011;20043;50.998;4.754;2023-07-13T08:34:39;14.68;;;3.25;;
33714;SDS011;20043;50.998;4.754;2023-07-13T08:37:05;16.52;;;3.60;;
33714;SDS011;20043;50.998;4.754;2023-07-13T08:39:32;16.25;;;3.67;;
33714;SDS011;20043;50.998;4.754;2023-07-13T08:42:05;13.50;;;3.42;;
33714;SDS011;20043;50.998;4.754;2023-07-13T08:45:04;17.10;;;3.47;;
33714;SDS011;20043;50.998;4.754;2023-07-13T08:48:00;17.92;;;3.83;;
33714;SDS011;20043;50.998;4.754;2023-07-13T08:50:33;13.82;;;3.05;;
33714;SDS011;20043;50.998;4.754;2023-07-13T08:53:05;11.98;;;2.97;;
33714;SDS011;20043;50.998;4.754;2023-07-13T08:55:33;18.95;;;3.17;;
33714;SDS011;20043;50.998;4.754;2023-07-13T08:58:08;18.83;;;3.65;;
33714;SDS011;20043;50.998;4.754;2023-07-13T09:00:44;16.55;;;3.08;;
33714;SDS011;20043;50.998;4.754;2023-07-13T09:03:22;12.10;;;2.83;;
33714;SDS011;20043;50.998;4.754;2023-07-13T09:05:53;12.27;;;3.17;;
33714;SDS011;20043;50.998;4.754;2023-07-13T09:16:21;8.40;;;2.80;;
33714;SDS011;20043;50.998;4.754;2023-07-13T09:18:48;15.82;;;2.83;;
33714;SDS011;20043;50.998;4.754;2023-07-13T09:21:23;18.33;;;2.97;;
33714;SDS011;20043;50.998;4.754;2023-07-13T09:23:54;10.65;;;2.97;;
33714;SDS011;20043;50.998;4.754;2023-07-13T09:26:25;11.13;;;3.15;;
33714;SDS011;20043;50.998;4.754;2023-07-13T09:28:57;14.05;;;2.40;;
33714;SDS011;20043;50.998;4.754;2023-07-13T09:31:29;11.02;;;2.50;;
33714;SDS011;20043;50.998;4.754;2023-07-13T09:34:00;10.32;;;2.40;;
33714;SDS011;20043;50.998;4.754;2023-07-13T09:36:29;10.75;;;2.85;;
33714;SDS011;20043;50.998;4.754;2023-07-13T09:39:12;6.70;;;2.50;;
33714;SDS011;20043;50.998;4.754;2023-07-13T09:44:43;12.45;;;2.70;;
33714;SDS011;20043;50.998;4.754;2023-07-13T09:47:15;11.63;;;2.53;;
33714;SDS011;20043;50.998;4.754;2023-07-13T09:49:43;9.98;;;2.60;;
33714;SDS011;20043;50.998;4.754;2023-07-13T09:52:11;9.05;;;2.22;;
33714;SDS011;20043;50.998;4.754;2023-07-13T09:54:39;11.48;;;2.40;;
33714;SDS011;20043;50.998;4.754;2023-07-13T09:57:13;11.20;;;2.38;;
33714;SDS011;20043;50.998;4.754;2023-07-13T09:59:44;11.15;;;2.60;;
33714;SDS011;20043;50.998;4.754;2023-07-13T10:02:33;6.63;;;2.20;;
33714;SDS011;20043;50.998;4.754;2023-07-13T10:07:26;7.45;;;1.90;;
33714;SDS011;20043;50.998;4.754;2023-07-13T10:09:53;13.68;;;2.70;;
33714;SDS011;20043;50.998;4.754;2023-07-13T10:12:19;8.60;;;2.75;;
33714;SDS011;20043;50.998;4.754;2023-07-13T10:14:45;7.97;;;2.53;;
33714;SDS011;20043;50.998;4.754;2023-07-13T10:17:13;11.45;;;2.42;;
33714;SDS011;20043;50.998;4.754;2023-07-13T10:19:39;7.35;;;2.40;;
33714;SDS011;20043;50.998;4.754;2023-07-13T10:24:54;6.60;;;2.03;;
33714;SDS011;20043;50.998;4.754;2023-07-13T10:27:23;8.55;;;2.20;;
33714;SDS011;20043;50.998;4.754;2023-07-13T10:32:33;10.95;;;2.67;;
33714;SDS011;20043;50.998;4.754;2023-07-13T10:34:59;7.70;;;2.53;;
33714;SDS011;20043;50.998;4.754;2023-07-13T10:37:26;8.65;;;2.63;;
33714;SDS011;20043;50.998;4.754;2023-07-13T10:40:04;10.77;;;2.42;;
33714;SDS011;20043;50.998;4.754;2023-07-13T10:42:38;10.32;;;2.40;;
33714;SDS011;20043;50.998;4.754;2023-07-13T10:45:17;12.60;;;2.80;;
33714;SDS011;20043;50.998;4.754;2023-07-13T10:47:45;11.13;;;2.25;;
33714;SDS011;20043;50.998;4.754;2023-07-13T10:50:17;7.38;;;1.98;;
33714;SDS011;20043;50.998;4.754;2023-07-13T10:52:49;5.72;;;1.80;;
33714;SDS011;20043;50.998;4.754;2023-07-13T10:55:32;4.82;;;1.50;;
33714;SDS011;20043;50.998;4.754;2023-07-13T11:03:32;7.35;;;2.00;;
33714;SDS011;20043;50.998;4.754;2023-07-13T11:06:07;9.70;;;2.78;;
33714;SDS011;20043;50.998;4.754;2023-07-13T11:11:02;10.68;;;2.00;;
33714;SDS011;20043;50.998;4.754;2023-07-13T11:13:38;6.55;;;2.20;;
33714;SDS011;20043;50.998;4.754;2023-07-13T11:21:29;5.07;;;1.80;;
33714;SDS011;20043;50.998;4.754;2023-07-13T11:24:13;5.93;;;1.83;;
33714;SDS011;20043;50.998;4.754;2023-07-13T11:31:57;7.78;;;2.20;;
33714;SDS011;20043;50.998;4.754;2023-07-13T11:34:28;13.73;;;2.40;;
33714;SDS011;20043;50.998;4.754;2023-07-13T11:36:58;5.80;;;2.20;;
33714;SDS011;20043;50.998;4.754;2023-07-13T11:39:29;6.30;;;1.88;;
33714;SDS011;20043;50.998;4.754;2023-07-13T11:41:57;11.38;;;2.35;;
33714;SDS011;20043;50.998;4.754;2023-07-13T11:44:27;6.95;;;2.28;;
33714;SDS011;20043;50.998;4.754;2023-07-13T11:46:55;7.70;;;2.00;;
33714;SDS011;20043;50.998;4.754;2023-07-13T11:49:25;5.35;;;1.80;;
33714;SDS011;20043;50.998;4.754;2023-07-13T11:51:55;8.65;;;2.13;;
33714;SDS011;20043;50.998;4.754;2023-07-13T11:54:27;10.38;;;2.33;;
33714;SDS011;20043;50.998;4.754;2023-07-13T11:56:59;7.85;;;2.05;;
33714;SDS011;20043;50.998;4.754;2023-07-13T11:59:31;5.82;;;1.80;;
33714;SDS011;20043;50.998;4.754;2023-07-13T12:01:58;8.38;;;2.17;;
33714;SDS011;20043;50.998;4.754;2023-07-13T12:04:25;8.93;;;2.33;;
33714;SDS011;20043;50.998;4.754;2023-07-13T12:06:58;9.75;;;2.38;;
33714;SDS011;20043;50.998;4.754;2023-07-13T12:09:30;14.57;;;2.25;;
33714;SDS011;20043;50.998;4.754;2023-07-13T12:11:56;8.07;;;2.42;;
33714;SDS011;20043;50.998;4.754;2023-07-13T12:14:25;11.20;;;2.05;;
33714;SDS011;20043;50.998;4.754;2023-07-13T12:16:51;8.00;;;2.08;;
33714;SDS011;20043;50.998;4.754;2023-07-13T12:19:20;6.03;;;1.75;;
33714;SDS011;20043;50.998;4.754;2023-07-13T12:21:47;6.50;;;1.80;;
33714;SDS011;20043;50.998;4.754;2023-07-13T12:24:14;10.90;;;1.88;;
33714;SDS011;20043;50.998;4.754;2023-07-13T12:27:13;8.88;;;2.03;;
33714;SDS011;20043;50.998;4.754;2023-07-13T12:30:15;12.63;;;2.40;;
33714;SDS011;20043;50.998;4.754;2023-07-13T12:33:01;12.80;;;2.90;;
33714;SDS011;20043;50.998;4.754;2023-07-13T12:35:40;9.85;;;2.47;;
33714;SDS011;20043;50.998;4.754;2023-07-13T12:38:11;6.00;;;2.40;;
33714;SDS011;20043;50.998;4.754;2023-07-13T12:40:38;7.72;;;2.60;;
33714;SDS011;20043;50.998;4.754;2023-07-13T12:43:05;6.05;;;2.40;;
33714;SDS011;20043;50.998;4.754;2023-07-13T12:45:36;13.13;;;2.83;;
33714;SDS011;20043;50.998;4.754;2023-07-13T12:48:06;6.63;;;2.60;;
33714;SDS011;20043;50.998;4.754;2023-07-13T12:50:49;5.78;;;2.50;;
33714;SDS011;20043;50.998;4.754;2023-07-13T12:53:38;9.75;;;2.65;;
33714;SDS011;20043;50.998;4.754;2023-07-13T12:56:04;7.40;;;2.10;;
33714;SDS011;20043;50.998;4.754;2023-07-13T12:58:39;6.90;;;2.65;;
33714;SDS011;20043;50.998;4.754;2023-07-13T13:01:11;6.97;;;2.40;;
33714;SDS011;20043;50.998;4.754;2023-07-13T13:03:39;6.32;;;2.40;;
33714;SDS011;20043;50.998;4.754;2023-07-13T13:08:48;6.47;;;2.28;;
33714;SDS011;20043;50.998;4.754;2023-07-13T13:11:16;5.22;;;2.10;;
33714;SDS011;20043;50.998;4.754;2023-07-13T13:13:42;4.80;;;2.08;;
33714;SDS011;20043;50.998;4.754;2023-07-13T13:18:59;5.80;;;1.98;;
33714;SDS011;20043;50.998;4.754;2023-07-13T13:21:35;6.13;;;2.00;;
33714;SDS011;20043;50.998;4.754;2023-07-13T13:24:00;6.55;;;2.33;;
33714;SDS011;20043;50.998;4.754;2023-07-13T13:26:26;5.00;;;2.10;;
33714;SDS011;20043;50.998;4.754;2023-07-13T13:28:52;5.05;;;1.90;;
33714;SDS011;20043;50.998;4.754;2023-07-13T13:31:18;6.50;;;2.20;;
33714;SDS011;20043;50.998;4.754;2023-07-13T13:33:44;7.13;;;2.00;;
33714;SDS011;20043;50.998;4.754;2023-07-13T13:36:18;7.80;;;2.45;;
33714;SDS011;20043;50.998;4.754;2023-07-13T13:38:46;5.82;;;1.90;;
33714;SDS011;20043;50.998;4.754;2023-07-13T13:41:13;4.72;;;2.22;;
33714;SDS011;20043;50.998;4.754;2023-07-13T13:43:42;5.10;;;2.40;;
33714;SDS011;20043;50.998;4.754;2023-07-13T13:48:43;7.50;;;1.98;;
33714;SDS011;20043;50.998;4.754;2023-07-13T13:51:17;8.73;;;2.47;;
33714;SDS011;20043;50.998;4.754;2023-07-13T13:53:47;7.35;;;2.40;;
33714;SDS011;20043;50.998;4.754;2023-07-13T13:56:16;6.68;;;2.40;;
33714;SDS011;20043;50.998;4.754;2023-07-13T13:58:43;7.35;;;2.50;;
33714;SDS011;20043;50.998;4.754;2023-07-13T14:01:27;6.20;;;2.08;;
33714;SDS011;20043;50.998;4.754;2023-07-13T14:03:54;9.33;;;2.43;;
33714;SDS011;20043;50.998;4.754;2023-07-13T14:06:19;6.78;;;2.17;;
33714;SDS011;20043;50.998;4.754;2023-07-13T14:08:45;7.93;;;2.40;;
33714;SDS011;20043;50.998;4.754;2023-07-13T14:11:16;9.45;;;2.83;;
33714;SDS011;20043;50.998;4.754;2023-07-13T14:13:44;9.07;;;2.38;;
33714;SDS011;20043;50.998;4.754;2023-07-13T14:16:18;5.43;;;2.25;;
33714;SDS011;20043;50.998;4.754;2023-07-13T14:18:46;8.43;;;2.78;;
33714;SDS011;20043;50.998;4.754;2023-07-13T14:21:13;7.00;;;2.47;;
33714;SDS011;20043;50.998;4.754;2023-07-13T14:23:44;7.05;;;1.90;;
33714;SDS011;20043;50.998;4.754;2023-07-13T14:26:17;3.90;;;1.83;;
33714;SDS011;20043;50.998;4.754;2023-07-13T14:28:48;5.57;;;2.15;;
33714;SDS011;20043;50.998;4.754;2023-07-13T14:31:20;6.45;;;2.00;;
33714;SDS011;20043;50.998;4.754;2023-07-13T14:33:48;7.75;;;1.85;;
33714;SDS011;20043;50.998;4.754;2023-07-13T14:36:20;5.50;;;1.60;;
33714;SDS011;20043;50.998;4.754;2023-07-13T14:38:46;5.10;;;1.83;;
33714;SDS011;20043;50.998;4.754;2023-07-13T14:41:26;3.58;;;1.67;;
33714;SDS011;20043;50.998;4.754;2023-07-13T14:43:52;4.20;;;1.65;;
33714;SDS011;20043;50.998;4.754;2023-07-13T14:46:29;8.65;;;1.85;;
33714;SDS011;20043;50.998;4.754;2023-07-13T14:51:47;8.15;;;1.98;;
33714;SDS011;20043;50.998;4.754;2023-07-13T14:54:13;7.85;;;2.00;;
33714;SDS011;20043;50.998;4.754;2023-07-13T14:56:39;4.38;;;1.90;;
33714;SDS011;20043;50.998;4.754;2023-07-13T14:59:05;7.72;;;1.85;;
33714;SDS011;20043;50.998;4.754;2023-07-13T15:01:32;4.32;;;1.65;;
33714;SDS011;20043;50.998;4.754;2023-07-13T15:04:02;4.95;;;2.60;;
33714;SDS011;20043;50.998;4.754;2023-07-13T15:06:52;5.78;;;2.60;;
33714;SDS011;20043;50.998;4.754;2023-07-13T15:09:27;8.10;;;2.80;;
33714;SDS011;20043;50.998;4.754;2023-07-13T15:11:56;11.27;;;2.00;;
33714;SDS011;20043;50.998;4.754;2023-07-13T15:14:22;3.33;;;1.70;;
33714;SDS011;20043;50.998;4.754;2023-07-13T15:16:50;19.63;;;3.92;;
33714;SDS011;20043;50.998;4.754;2023-07-13T15:19:19;5.65;;;2.10;;
33714;SDS011;20043;50.998;4.754;2023-07-13T15:21:46;4.30;;;1.90;;
33714;SDS011;20043;50.998;4.754;2023-07-13T15:24:12;4.47;;;1.67;;
33714;SDS011;20043;50.998;4.754;2023-07-13T15:26:38;6.55;;;1.90;;
33714;SDS011;20043;50.998;4.754;2023-07-13T15:29:05;7.28;;;2.28;;
33714;SDS011;20043;50.998;4.754;2023-07-13T15:31:31;4.82;;;1.70;;
33714;SDS011;20043;50.998;4.754;2023-07-13T15:33:58;4.85;;;1.65;;
33714;SDS011;20043;50.998;4.754;2023-07-13T15:36:25;5.28;;;1.60;;
33714;SDS011;20043;50.998;4.754;2023-07-13T15:38:51;6.35;;;1.77;;